| time (UTC) | temp F | wind direction | speed knots | gust knots | rain 1hr in | rain 24hr in | rain mn in | humidity % | barometer mb |
| 20260510153300 | 75 | 64 | 2.6 | 2.6 | 0.00 | 0.00 | 0.00 | 96 | 1017.2 |
| 20260510152757 | 75 | 39 | 0.0 | 1.7 | 0.00 | 0.00 | 0.00 | 97 | 1017.3 |
| 20260510152254 | 75 | 69 | 1.7 | 2.6 | 0.00 | 0.00 | 0.00 | 96 | 1017.4 |
| 20260510151750 | 75 | 46 | 0.9 | 1.7 | 0.00 | 0.00 | 0.00 | 97 | 1017.1 |
| 20260510151249 | 75 | 50 | 1.7 | 1.7 | 0.00 | 0.00 | 0.00 | 97 | 1017.1 |
| 20260510150744 | 75 | 56 | 0.9 | 2.6 | 0.00 | 0.00 | 0.00 | 97 | 1017.1 |
| 20260510150240 | 74 | 46 | 0.0 | 0.9 | 0.00 | 0.00 | 0.00 | 98 | 1017.3 |
| 20260510145736 | 74 | 39 | 0.0 | 1.7 | 0.00 | 0.00 | 0.00 | 98 | 1017.2 |
| 20260510145233 | 74 | 62 | 0.9 | 0.9 | 0.00 | 0.00 | 0.00 | 98 | 1017.1 |
| 20260510144728 | 74 | 42 | 0.0 | 0.0 | 0.00 | 0.00 | 0.00 | 97 | 1017.2 |
| 20260510144226 | 74 | 48 | 0.9 | 0.9 | 0.00 | 0.00 | 0.00 | 97 | 1017.0 |
| 20260510143720 | 74 | 11 | 0.0 | 0.9 | 0.00 | 0.00 | 0.00 | 98 | 1017.1 |
| 20260510143217 | 74 | 47 | 0.0 | 0.0 | 0.00 | 0.00 | 0.00 | 98 | 1017.1 |
| 20260510142713 | 74 | 47 | 0.0 | 0.9 | 0.00 | 0.00 | 0.00 | 97 | 1016.9 |
| 20260510142210 | 73 | 46 | 0.0 | 0.0 | 0.00 | 0.00 | 0.00 | 98 | 1017.0 |
| 20260510141707 | 73 | 39 | 0.0 | 1.7 | 0.00 | 0.00 | 0.00 | 98 | 1017.1 |
| 20260510141206 | 73 | 28 | 0.0 | 0.0 | 0.00 | 0.00 | 0.00 | 98 | 1017.0 |
| 20260510140701 | 73 | 59 | 0.9 | 0.9 | 0.00 | 0.00 | 0.00 | 98 | 1017.0 |
| 20260510140201 | 73 | 54 | 0.9 | 0.9 | 0.00 | 0.00 | 0.00 | 98 | 1017.1 |
| 20260510135656 | 73 | 35 | 0.0 | 0.0 | 0.00 | 0.00 | 0.00 | 98 | 1017.0 |
| 20260510135152 | 73 | 35 | 0.0 | 0.0 | 0.00 | 0.00 | 0.00 | 98 | 1016.8 |
| 20260510134650 | 73 | 45 | 0.0 | 0.9 | 0.00 | 0.00 | 0.00 | 98 | 1016.9 |
| 20260510134147 | 73 | 39 | 0.0 | 0.0 | 0.00 | 0.00 | 0.00 | 98 | 1016.9 |
| 20260510133643 | 73 | 47 | 0.0 | 0.9 | 0.00 | 0.00 | 0.00 | 98 | 1016.9 |
| 20260510133138 | 73 | 20 | 0.0 | 0.9 | 0.00 | 0.00 | 0.00 | 98 | 1016.7 |
| 20260510132635 | 73 | 33 | 0.0 | 0.0 | 0.00 | 0.00 | 0.00 | 98 | 1016.8 |
| 20260510132133 | 73 | 56 | 0.0 | 0.0 | 0.00 | 0.00 | 0.00 | 98 | 1016.9 |
| 20260510131630 | 73 | 29 | 0.0 | 0.0 | 0.00 | 0.00 | 0.00 | 98 | 1016.6 |
| 20260510131127 | 73 | 24 | 0.0 | 0.0 | 0.00 | 0.00 | 0.00 | 98 | 1016.6 |
| 20260510130623 | 73 | 67 | 0.9 | 0.9 | 0.00 | 0.00 | 0.00 | 98 | 1016.6 |
| 20260510130121 | 73 | 10 | 0.0 | 0.9 | 0.00 | 0.00 | 0.00 | 98 | 1016.3 |
| 20260510125617 | 73 | 33 | 0.0 | 0.0 | 0.00 | 0.00 | 0.00 | 98 | 1016.6 |
| 20260510125114 | 73 | 31 | 0.0 | 0.0 | 0.00 | 0.00 | 0.00 | 98 | 1016.5 |
| 20260510124610 | 73 | 39 | 0.0 | 0.9 | 0.00 | 0.00 | 0.00 | 98 | 1016.1 |
| 20260510124107 | 72 | 32 | 0.0 | 2.6 | 0.00 | 0.00 | 0.00 | 98 | 1016.2 |
| 20260510123603 | 73 | 37 | 0.0 | 0.9 | 0.00 | 0.00 | 0.00 | 98 | 1016.1 |
| 20260510123059 | 73 | 28 | 0.0 | 0.9 | 0.00 | 0.00 | 0.00 | 98 | 1016.0 |
| 20260510122555 | 73 | 28 | 0.0 | 0.9 | 0.00 | 0.00 | 0.00 | 98 | 1015.8 |
| 20260510122051 | 73 | 38 | 0.0 | 0.0 | 0.00 | 0.00 | 0.00 | 98 | 1015.9 |
| 20260510121548 | 73 | 18 | 0.0 | 0.0 | 0.00 | 0.00 | 0.00 | 98 | 1015.9 |
| 20260510121045 | 72 | 12 | 0.0 | 0.9 | 0.00 | 0.00 | 0.00 | 98 | 1015.9 |
| 20260510120543 | 72 | 34 | 0.0 | 0.0 | 0.00 | 0.00 | 0.00 | 98 | 1015.4 |
| 20260510120038 | 72 | 33 | 0.0 | 0.0 | 0.00 | 0.00 | 0.00 | 98 | 1015.5 |
| 20260510115535 | 72 | 35 | 0.0 | 0.0 | 0.00 | 0.00 | 0.00 | 98 | 1015.4 |
| 20260510115032 | 71 | 36 | 0.0 | 0.0 | 0.00 | 0.00 | 0.00 | 98 | 1015.5 |
| 20260510114528 | 71 | 36 | 0.0 | 0.0 | 0.00 | 0.00 | 0.00 | 98 | 1015.3 |
| 20260510114024 | 71 | 36 | 0.0 | 0.0 | 0.00 | 0.00 | 0.00 | 98 | 1015.3 |
| 20260510113520 | 71 | 36 | 0.0 | 0.0 | 0.00 | 0.00 | 0.00 | 98 | 1015.4 |
| 20260510113018 | 71 | 36 | 0.0 | 0.0 | 0.00 | 0.00 | 0.00 | 98 | 1015.5 |
| 20260510112514 | 70 | 36 | 0.0 | 0.0 | 0.00 | 0.00 | 0.00 | 98 | 1015.3 |
| 20260510112010 | 70 | 36 | 0.0 | 0.0 | 0.00 | 0.00 | 0.00 | 98 | 1014.9 |
| 20260510111507 | 70 | 36 | 0.0 | 0.0 | 0.00 | 0.00 | 0.00 | 98 | 1015.1 |
| 20260510111003 | 70 | 36 | 0.0 | 0.0 | 0.00 | 0.00 | 0.00 | 98 | 1014.9 |
| 20260510110459 | 70 | 43 | 0.0 | 0.0 | 0.00 | 0.00 | 0.00 | 98 | 1014.9 |
| 20260510105955 | 70 | 43 | 0.0 | 0.0 | 0.00 | 0.00 | 0.00 | 98 | 1014.6 |
| 20260510105451 | 70 | 25 | 0.0 | 0.0 | 0.00 | 0.00 | 0.00 | 98 | 1014.8 |
| 20260510104946 | 70 | 25 | 0.0 | 0.0 | 0.00 | 0.00 | 0.00 | 98 | 1014.9 |
| 20260510104443 | 70 | 25 | 0.0 | 0.0 | 0.00 | 0.00 | 0.00 | 98 | 1014.8 |
| 20260510103939 | 70 | 25 | 0.0 | 0.0 | 0.00 | 0.00 | 0.00 | 98 | 1014.7 |
| 20260510103437 | 70 | 25 | 0.0 | 0.0 | 0.00 | 0.00 | 0.00 | 97 | 1014.7 |
| 20260510102932 | 70 | 25 | 0.0 | 0.0 | 0.00 | 0.00 | 0.00 | 97 | 1014.7 |
| 20260510102428 | 70 | 25 | 0.0 | 0.0 | 0.00 | 0.00 | 0.00 | 97 | 1014.6 |
| 20260510101925 | 70 | 25 | 0.0 | 0.0 | 0.00 | 0.00 | 0.00 | 97 | 1014.5 |
| 20260510101423 | 70 | 25 | 0.0 | 0.0 | 0.00 | 0.00 | 0.00 | 98 | 1014.5 |
| 20260510100921 | 70 | 25 | 0.0 | 0.0 | 0.00 | 0.00 | 0.00 | 97 | 1014.4 |
| 20260510100417 | 70 | 25 | 0.0 | 0.0 | 0.00 | 0.00 | 0.00 | 97 | 1014.4 |
| 20260510095913 | 71 | 25 | 0.0 | 0.0 | 0.00 | 0.00 | 0.00 | 97 | 1014.2 |
| 20260510095409 | 71 | 25 | 0.0 | 0.0 | 0.00 | 0.00 | 0.00 | 97 | 1014.3 |
| 20260510094908 | 71 | 25 | 0.0 | 0.0 | 0.00 | 0.00 | 0.00 | 97 | 1014.3 |
| 20260510094403 | 71 | 25 | 0.0 | 0.0 | 0.00 | 0.00 | 0.00 | 97 | 1014.3 |
| 20260510093859 | 71 | 25 | 0.0 | 0.0 | 0.00 | 0.00 | 0.00 | 97 | 1014.2 |
| 20260510093355 | 71 | 25 | 0.0 | 0.0 | 0.00 | 0.00 | 0.00 | 97 | 1014.3 |
| 20260510092851 | 71 | 25 | 0.0 | 0.0 | 0.00 | 0.00 | 0.00 | 97 | 1013.9 |
| 20260510092348 | 71 | 25 | 0.0 | 0.0 | 0.00 | 0.00 | 0.00 | 97 | 1014.0 |
| 20260510091843 | 71 | 25 | 0.0 | 0.0 | 0.00 | 0.00 | 0.00 | 97 | 1013.8 |
| 20260510091341 | 70 | 25 | 0.0 | 0.0 | 0.00 | 0.00 | 0.00 | 97 | 1014.0 |
| 20260510090838 | 70 | 25 | 0.0 | 0.0 | 0.00 | 0.00 | 0.00 | 97 | 1013.7 |
| 20260510090334 | 70 | 25 | 0.0 | 0.0 | 0.00 | 0.00 | 0.00 | 97 | 1013.6 |
| 20260510085830 | 70 | 25 | 0.0 | 0.0 | 0.00 | 0.00 | 0.00 | 97 | 1013.4 |
| 20260510085330 | 70 | 25 | 0.0 | 0.0 | 0.00 | 0.00 | 0.00 | 97 | 1013.4 |
| 20260510084826 | 70 | 25 | 0.0 | 0.0 | 0.00 | 0.00 | 0.00 | 97 | 1013.7 |
| 20260510084323 | 70 | 25 | 0.0 | 0.0 | 0.00 | 0.00 | 0.00 | 97 | 1013.6 |
| 20260510083820 | 71 | 25 | 0.0 | 0.0 | 0.00 | 0.00 | 0.00 | 97 | 1013.3 |
| 20260510083317 | 71 | 25 | 0.0 | 0.0 | 0.00 | 0.00 | 0.00 | 97 | 1013.4 |
| 20260510082812 | 71 | 25 | 0.0 | 0.0 | 0.00 | 0.00 | 0.00 | 97 | 1013.5 |
| 20260510082310 | 71 | 25 | 0.0 | 0.0 | 0.00 | 0.00 | 0.00 | 97 | 1013.5 |
| 20260510081809 | 71 | 25 | 0.0 | 0.0 | 0.00 | 0.00 | 0.00 | 97 | 1013.5 |
| 20260510081304 | 71 | 25 | 0.0 | 0.0 | 0.00 | 0.00 | 0.00 | 97 | 1013.7 |
| 20260510080800 | 71 | 25 | 0.0 | 0.0 | 0.00 | 0.00 | 0.00 | 97 | 1013.6 |
| 20260510080255 | 71 | 25 | 0.0 | 0.0 | 0.00 | 0.00 | 0.00 | 97 | 1013.5 |
| 20260510075752 | 70 | 25 | 0.0 | 0.0 | 0.00 | 0.00 | 0.00 | 97 | 1013.6 |
| 20260510075250 | 70 | 49 | 0.0 | 0.0 | 0.00 | 0.00 | 0.00 | 97 | 1013.6 |
| 20260510074747 | 70 | 49 | 0.0 | 0.0 | 0.00 | 0.00 | 0.00 | 97 | 1013.6 |
| 20260510074243 | 70 | 49 | 0.0 | 0.0 | 0.00 | 0.00 | 0.00 | 97 | 1013.6 |
| 20260510073739 | 70 | 49 | 0.0 | 0.0 | 0.00 | 0.00 | 0.00 | 97 | 1013.3 |
| 20260510073236 | 69 | 49 | 0.0 | 0.0 | 0.00 | 0.00 | 0.00 | 97 | 1013.3 |
| 20260510072731 | 69 | 49 | 0.0 | 0.0 | 0.00 | 0.00 | 0.00 | 97 | 1013.3 |
| 20260510072228 | 69 | 49 | 0.0 | 0.0 | 0.00 | 0.00 | 0.00 | 97 | 1013.4 |
| 20260510071725 | 69 | 49 | 0.0 | 0.0 | 0.00 | 0.00 | 0.00 | 97 | 1013.3 |
| 20260510071221 | 69 | 49 | 0.0 | 0.0 | 0.00 | 0.00 | 0.00 | 97 | 1013.3 |
| 20260510070720 | 69 | 49 | 0.0 | 0.0 | 0.00 | 0.00 | 0.00 | 97 | 1013.3 |
| 20260510070217 | 69 | 49 | 0.0 | 0.0 | 0.00 | 0.00 | 0.00 | 97 | 1013.3 |
| 20260510065711 | 69 | 49 | 0.0 | 0.0 | 0.00 | 0.00 | 0.00 | 97 | 1013.4 |
| 20260510065208 | 69 | 49 | 0.0 | 0.0 | 0.00 | 0.00 | 0.00 | 97 | 1013.4 |
| 20260510064705 | 70 | 49 | 0.0 | 0.0 | 0.00 | 0.00 | 0.00 | 97 | 1013.4 |
| 20260510064203 | 69 | 52 | 0.0 | 0.0 | 0.00 | 0.00 | 0.00 | 97 | 1013.5 |
| 20260510063659 | 70 | 52 | 0.0 | 0.0 | 0.00 | 0.00 | 0.00 | 97 | 1013.4 |
| 20260510063155 | 70 | 52 | 0.0 | 0.0 | 0.00 | 0.00 | 0.00 | 97 | 1013.4 |
| 20260510062652 | 70 | 52 | 0.0 | 0.0 | 0.00 | 0.00 | 0.00 | 97 | 1013.7 |
| 20260510062148 | 70 | 52 | 0.0 | 0.0 | 0.00 | 0.00 | 0.00 | 97 | 1013.5 |
| 20260510061643 | 70 | 52 | 0.0 | 0.0 | 0.00 | 0.00 | 0.00 | 97 | 1013.5 |
| 20260510061141 | 70 | 52 | 0.0 | 0.0 | 0.00 | 0.00 | 0.00 | 97 | 1013.7 |
| 20260510060637 | 70 | 52 | 0.0 | 0.0 | 0.00 | 0.00 | 0.00 | 97 | 1013.9 |
| 20260510060133 | 70 | 52 | 0.0 | 0.0 | 0.00 | 0.00 | 0.00 | 97 | 1014.0 |
| 20260510055630 | 70 | 52 | 0.0 | 0.0 | 0.00 | 0.00 | 0.00 | 97 | 1014.0 |
| 20260510055128 | 71 | 52 | 0.0 | 0.0 | 0.00 | 0.00 | 0.00 | 97 | 1014.0 |
| 20260510054623 | 71 | 52 | 0.0 | 0.0 | 0.00 | 0.00 | 0.00 | 97 | 1014.1 |
| 20260510054119 | 71 | 52 | 0.0 | 0.0 | 0.00 | 0.00 | 0.00 | 97 | 1014.3 |
| 20260510053618 | 71 | 52 | 0.0 | 0.0 | 0.00 | 0.00 | 0.00 | 97 | 1014.1 |
| 20260510053115 | 71 | 52 | 0.0 | 0.0 | 0.00 | 0.00 | 0.00 | 97 | 1014.4 |
| 20260510052611 | 71 | 52 | 0.0 | 0.0 | 0.00 | 0.00 | 0.00 | 97 | 1014.7 |
| 20260510052108 | 71 | 52 | 0.0 | 0.0 | 0.00 | 0.00 | 0.00 | 97 | 1014.6 |
| 20260510051603 | 71 | 52 | 0.0 | 0.0 | 0.00 | 0.00 | 0.00 | 97 | 1014.6 |
| 20260510051100 | 71 | 52 | 0.0 | 0.0 | 0.00 | 0.00 | 0.00 | 97 | 1014.7 |
| 20260510050557 | 71 | 52 | 0.0 | 0.0 | 0.00 | 0.00 | 0.00 | 97 | 1014.6 |
| 20260510050054 | 71 | 35 | 0.0 | 0.0 | 0.00 | 0.00 | 0.00 | 97 | 1014.9 |
| 20260510045552 | 71 | 34 | 0.0 | 0.0 | 0.00 | 0.00 | 0.00 | 97 | 1014.9 |
| 20260510045047 | 71 | 34 | 0.0 | 0.0 | 0.00 | 0.00 | 0.00 | 97 | 1015.0 |
| 20260510044544 | 70 | 34 | 0.0 | 0.0 | 0.00 | 0.00 | 0.00 | 97 | 1014.9 |
| 20260510044042 | 70 | 34 | 0.0 | 0.0 | 0.00 | 0.00 | 0.00 | 97 | 1014.9 |
| 20260510043537 | 70 | 34 | 0.0 | 0.0 | 0.00 | 0.00 | 0.00 | 97 | 1014.9 |
| 20260510043033 | 70 | 34 | 0.0 | 0.0 | 0.00 | 0.00 | 0.00 | 97 | 1015.1 |
| 20260510042527 | 70 | 34 | 0.0 | 0.0 | 0.00 | 0.00 | 0.00 | 97 | 1015.0 |
| 20260510042027 | 70 | 34 | 0.0 | 0.0 | 0.00 | 0.00 | 0.00 | 97 | 1014.9 |
| 20260510041525 | 70 | 34 | 0.0 | 0.0 | 0.00 | 0.00 | 0.00 | 96 | 1014.9 |
| 20260510041022 | 71 | 34 | 0.0 | 0.0 | 0.00 | 0.00 | 0.00 | 96 | 1014.9 |
| 20260510040519 | 71 | 34 | 0.0 | 0.0 | 0.00 | 0.00 | 0.00 | 96 | 1014.9 |
| 20260510040015 | 71 | 34 | 0.0 | 0.0 | 0.00 | 0.32 | 0.32 | 96 | 1014.8 |
| 20260510035512 | 71 | 34 | 0.0 | 0.0 | 0.00 | 0.32 | 0.32 | 97 | 1014.7 |
| 20260510035010 | 71 | 34 | 0.0 | 0.0 | 0.00 | 0.32 | 0.32 | 96 | 1014.9 |
| 20260510034510 | 71 | 34 | 0.0 | 0.0 | 0.00 | 0.32 | 0.32 | 96 | 1014.8 |
| 20260510034006 | 71 | 34 | 0.0 | 0.0 | 0.00 | 0.32 | 0.32 | 96 | 1015.1 |
| 20260510033502 | 71 | 34 | 0.0 | 0.0 | 0.00 | 0.32 | 0.32 | 96 | 1015.2 |
| 20260510033000 | 71 | 34 | 0.0 | 0.0 | 0.00 | 0.32 | 0.32 | 96 | 1014.9 |
| 20260510032457 | 71 | 34 | 0.0 | 0.0 | 0.00 | 0.32 | 0.32 | 96 | 1014.9 |
| 20260510031956 | 71 | 34 | 0.0 | 0.0 | 0.00 | 0.32 | 0.32 | 96 | 1015.1 |
| 20260510031452 | 71 | 34 | 0.0 | 0.0 | 0.00 | 0.32 | 0.32 | 96 | 1014.8 |
| 20260510030948 | 71 | 34 | 0.0 | 0.0 | 0.00 | 0.32 | 0.32 | 96 | 1014.9 |
| 20260510030443 | 71 | 34 | 0.0 | 0.0 | 0.00 | 0.32 | 0.32 | 96 | 1014.9 |
| 20260510025941 | 71 | 34 | 0.0 | 0.0 | 0.00 | 0.32 | 0.32 | 96 | 1014.7 |
| 20260510025438 | 71 | 34 | 0.0 | 0.0 | 0.00 | 0.32 | 0.32 | 96 | 1014.9 |
| 20260510024936 | 71 | 34 | 0.0 | 0.0 | 0.00 | 0.32 | 0.32 | 96 | 1014.6 |
| 20260510024432 | 71 | 34 | 0.0 | 0.0 | 0.00 | 0.32 | 0.32 | 96 | 1014.5 |
| 20260510023928 | 71 | 34 | 0.0 | 0.0 | 0.00 | 0.32 | 0.32 | 96 | 1014.7 |
| 20260510023425 | 71 | 34 | 0.0 | 0.0 | 0.00 | 0.32 | 0.32 | 96 | 1014.3 |
| 20260510022922 | 71 | 34 | 0.0 | 0.0 | 0.00 | 0.32 | 0.32 | 96 | 1014.3 |
| 20260510022421 | 71 | 34 | 0.0 | 0.0 | 0.00 | 0.32 | 0.32 | 96 | 1014.3 |
| 20260510021920 | 71 | 34 | 0.0 | 0.0 | 0.00 | 0.32 | 0.32 | 96 | 1014.0 |
| 20260510021419 | 71 | 34 | 0.0 | 0.0 | 0.00 | 0.32 | 0.32 | 96 | 1014.0 |
| 20260510020915 | 71 | 34 | 0.0 | 0.0 | 0.00 | 0.32 | 0.32 | 96 | 1014.1 |
| 20260510020410 | 71 | 34 | 0.0 | 0.0 | 0.00 | 0.32 | 0.32 | 96 | 1013.9 |
| 20260510015906 | 71 | 34 | 0.0 | 0.0 | 0.00 | 0.32 | 0.32 | 96 | 1013.7 |
| 20260510015401 | 71 | 34 | 0.0 | 0.0 | 0.00 | 0.32 | 0.32 | 96 | 1013.5 |
| 20260510014857 | 71 | 34 | 0.0 | 0.0 | 0.00 | 0.32 | 0.32 | 96 | 1013.6 |
| 20260510014355 | 71 | 34 | 0.0 | 0.0 | 0.00 | 0.32 | 0.32 | 96 | 1013.5 |
| 20260510013851 | 71 | 34 | 0.0 | 0.0 | 0.00 | 0.32 | 0.32 | 96 | 1013.4 |
| 20260510013346 | 71 | 34 | 0.0 | 0.0 | 0.00 | 0.32 | 0.32 | 96 | 1013.8 |
| 20260510012841 | 71 | 34 | 0.0 | 0.0 | 0.00 | 0.32 | 0.32 | 95 | 1013.8 |
| 20260510012341 | 71 | 34 | 0.0 | 0.0 | 0.00 | 0.32 | 0.32 | 95 | 1013.8 |
| 20260510011836 | 71 | 34 | 0.0 | 0.0 | 0.00 | 0.32 | 0.32 | 95 | 1013.5 |
| 20260510011332 | 71 | 34 | 0.0 | 0.0 | 0.00 | 0.32 | 0.32 | 95 | 1013.2 |
| 20260510010828 | 71 | 34 | 0.0 | 0.0 | 0.00 | 0.32 | 0.32 | 95 | 1013.2 |
| 20260510010326 | 72 | 34 | 0.0 | 0.0 | 0.00 | 0.32 | 0.32 | 95 | 1013.1 |
| 20260510005822 | 71 | 34 | 0.0 | 0.0 | 0.00 | 0.32 | 0.32 | 95 | 1013.3 |
| 20260510005319 | 71 | 34 | 0.0 | 0.0 | 0.00 | 0.32 | 0.32 | 95 | 1013.7 |
| 20260510004817 | 71 | 34 | 0.0 | 0.0 | 0.00 | 0.32 | 0.32 | 95 | 1013.6 |
| 20260510004314 | 71 | 34 | 0.0 | 0.0 | 0.00 | 0.32 | 0.32 | 95 | 1013.4 |
| 20260510003811 | 72 | 23 | 0.0 | 0.0 | 0.00 | 0.32 | 0.32 | 95 | 1013.5 |
| 20260510003308 | 72 | 22 | 0.0 | 0.0 | 0.07 | 0.32 | 0.32 | 95 | 1013.8 |
| 20260510002807 | 72 | 27 | 0.0 | 0.0 | 0.07 | 0.32 | 0.32 | 95 | 1013.5 |
| 20260510002306 | 72 | 28 | 0.0 | 0.0 | 0.00 | 0.31 | 0.31 | 95 | 1013.5 |
| 20260510001800 | 72 | 28 | 0.0 | 0.0 | 0.00 | 0.31 | 0.31 | 95 | 1013.7 |
| 20260510001259 | 72 | 28 | 0.0 | 0.0 | 0.00 | 0.31 | 0.31 | 95 | 1013.7 |
| 20260510000754 | 72 | 28 | 0.0 | 0.0 | 0.00 | 0.31 | 0.31 | 95 | 1013.7 |
| 20260510000252 | 72 | 28 | 0.0 | 0.0 | 0.00 | 0.31 | 0.31 | 95 | 1013.7 |
| 20260509235749 | 72 | 28 | 0.0 | 0.0 | 0.00 | 0.31 | 0.31 | 95 | 1013.6 |
| 20260509235245 | 72 | 28 | 0.0 | 0.0 | 0.00 | 0.31 | 0.31 | 95 | 1013.5 |
| 20260509234741 | 72 | 28 | 0.0 | 0.0 | 0.00 | 0.31 | 0.31 | 95 | 1013.5 |
| 20260509234238 | 72 | 27 | 0.0 | 0.0 | 0.00 | 0.31 | 0.31 | 95 | 1013.5 |
| 20260509233737 | 72 | 27 | 0.0 | 0.0 | 0.00 | 0.31 | 0.31 | 94 | 1013.4 |
| 20260509233234 | 72 | 27 | 0.0 | 0.0 | 0.00 | 0.31 | 0.31 | 94 | 1013.4 |
| 20260509232730 | 72 | 28 | 0.0 | 0.0 | 0.00 | 0.31 | 0.31 | 94 | 1013.5 |
| 20260509232227 | 72 | 27 | 0.0 | 0.0 | 0.00 | 0.31 | 0.31 | 94 | 1013.5 |
| 20260509231723 | 72 | 27 | 0.0 | 0.0 | 0.00 | 0.31 | 0.31 | 94 | 1013.5 |
| 20260509231221 | 72 | 32 | 0.0 | 0.0 | 0.00 | 0.31 | 0.31 | 94 | 1013.6 |
| 20260509230718 | 72 | 35 | 0.0 | 0.9 | 0.00 | 0.31 | 0.31 | 94 | 1013.3 |
| 20260509230215 | 72 | 57 | 0.9 | 0.9 | 0.00 | 0.31 | 0.31 | 94 | 1013.1 |
| 20260509225710 | 72 | 38 | 0.0 | 0.0 | 0.00 | 0.31 | 0.31 | 94 | 1013.4 |
| 20260509225206 | 72 | 59 | 0.9 | 1.7 | 0.00 | 0.31 | 0.31 | 94 | 1013.4 |
| 20260509224702 | 72 | 37 | 0.0 | 0.9 | 0.00 | 0.31 | 0.31 | 94 | 1013.4 |
| 20260509224159 | 72 | 47 | 0.0 | 0.9 | 0.00 | 0.31 | 0.31 | 94 | 1013.3 |
| 20260509223656 | 72 | 35 | 1.7 | 1.7 | 0.00 | 0.31 | 0.31 | 94 | 1013.3 |
| 20260509223153 | 72 | 41 | 0.0 | 0.9 | 0.00 | 0.31 | 0.31 | 94 | 1013.3 |
| 20260509222650 | 72 | 37 | 0.0 | 0.0 | 0.00 | 0.31 | 0.31 | 94 | 1013.7 |
| 20260509222145 | 72 | 29 | 0.0 | 0.0 | 0.00 | 0.31 | 0.31 | 94 | 1013.6 |
| 20260509221642 | 72 | 43 | 0.0 | 2.6 | 0.00 | 0.31 | 0.31 | 94 | 1013.4 |
| 20260509221137 | 72 | 42 | 0.0 | 0.9 | 0.00 | 0.31 | 0.31 | 94 | 1013.3 |
| 20260509220634 | 72 | 67 | 1.7 | 3.5 | 0.00 | 0.31 | 0.31 | 94 | 1013.6 |
| 20260509220130 | 72 | 51 | 0.0 | 1.7 | 0.00 | 0.31 | 0.31 | 94 | 1013.6 |
| 20260509215626 | 72 | 39 | 0.0 | 0.0 | 0.00 | 0.31 | 0.31 | 94 | 1013.3 |
| 20260509215123 | 72 | 38 | 0.9 | 3.5 | 0.00 | 0.31 | 0.31 | 94 | 1013.4 |
| 20260509214620 | 72 | 54 | 0.9 | 2.6 | 0.00 | 0.31 | 0.31 | 94 | 1013.2 |
| 20260509214116 | 73 | 53 | 0.0 | 2.6 | 0.00 | 0.31 | 0.31 | 94 | 1013.3 |
| 20260509213613 | 73 | 280 | 0.9 | 1.7 | 0.05 | 0.31 | 0.31 | 94 | 1013.3 |
| 20260509213109 | 73 | 82 | 0.9 | 1.7 | 0.05 | 0.31 | 0.31 | 93 | 1013.1 |
| 20260509212607 | 73 | 347 | 0.9 | 1.7 | 0.00 | 0.30 | 0.30 | 93 | 1013.2 |
| 20260509212104 | 73 | 35 | 0.0 | 1.7 | 0.00 | 0.30 | 0.30 | 93 | 1013.4 |
| 20260509211559 | 73 | 44 | 0.0 | 0.9 | 0.00 | 0.30 | 0.30 | 93 | 1013.5 |
| 20260509211056 | 74 | 40 | 0.9 | 1.7 | 0.00 | 0.30 | 0.30 | 93 | 1013.1 |
| 20260509210553 | 75 | 13 | 1.7 | 2.6 | 0.00 | 0.30 | 0.30 | 93 | 1013.1 |
| 20260509210050 | 75 | 28 | 0.0 | 0.0 | 0.00 | 0.30 | 0.30 | 94 | 1013.1 |
| 20260509205549 | 75 | 25 | 0.0 | 0.9 | 0.00 | 0.30 | 0.30 | 94 | 1013.1 |
| 20260509205045 | 75 | 36 | 0.0 | 0.9 | 0.07 | 0.30 | 0.30 | 93 | 1013.1 |
| 20260509204542 | 75 | 18 | 0.0 | 0.0 | 0.12 | 0.30 | 0.30 | 93 | 1013.3 |
| 20260509204038 | 75 | 22 | 0.0 | 0.0 | 0.05 | 0.29 | 0.29 | 93 | 1013.0 |
| 20260509203534 | 75 | 26 | 0.0 | 0.0 | 0.07 | 0.28 | 0.28 | 93 | 1012.8 |
| 20260509203033 | 75 | 19 | 0.0 | 0.9 | 0.07 | 0.28 | 0.28 | 93 | 1013.2 |
| 20260509202533 | 75 | 19 | 0.0 | 0.0 | 0.00 | 0.27 | 0.27 | 93 | 1013.3 |
| 20260509202029 | 75 | 18 | 0.0 | 0.0 | 0.00 | 0.27 | 0.27 | 93 | 1012.9 |
| 20260509201524 | 75 | 21 | 0.0 | 0.0 | 0.00 | 0.27 | 0.27 | 92 | 1012.9 |
| 20260509201022 | 76 | 18 | 0.0 | 0.9 | 0.00 | 0.27 | 0.27 | 92 | 1013.0 |
| 20260509200521 | 75 | 29 | 0.0 | 0.0 | 0.00 | 0.27 | 0.27 | 92 | 1012.8 |
| 20260509200019 | 75 | 25 | 0.0 | 1.7 | 0.00 | 0.27 | 0.27 | 92 | 1013.1 |
| 20260509195514 | 75 | 31 | 0.0 | 0.9 | 0.05 | 0.27 | 0.27 | 91 | 1012.8 |
| 20260509195013 | 75 | 27 | 0.0 | 0.0 | 0.05 | 0.27 | 0.27 | 91 | 1012.7 |
| 20260509194509 | 75 | 40 | 0.0 | 0.0 | 0.00 | 0.26 | 0.26 | 90 | 1012.8 |
| 20260509194007 | 75 | 42 | 0.0 | 0.0 | 0.07 | 0.26 | 0.26 | 90 | 1013.0 |
| 20260509193506 | 75 | 41 | 0.0 | 0.0 | 0.19 | 0.26 | 0.26 | 89 | 1013.0 |
| 20260509193003 | 75 | 40 | 0.0 | 0.0 | 0.42 | 0.25 | 0.25 | 88 | 1012.9 |
| 20260509192500 | 76 | 48 | 0.0 | 0.9 | 0.66 | 0.22 | 0.22 | 87 | 1013.1 |
| 20260509191954 | 77 | 29 | 0.0 | 0.9 | 0.50 | 0.15 | 0.15 | 85 | 1013.3 |
| 20260509191450 | 77 | 48 | 0.0 | 0.9 | 0.24 | 0.10 | 0.10 | 83 | 1012.9 |
| 20260509190946 | 78 | 25 | 0.0 | 0.0 | 0.12 | 0.07 | 0.07 | 81 | 1013.0 |
| 20260509190443 | 79 | 45 | 0.0 | 0.0 | 0.07 | 0.06 | 0.06 | 79 | 1012.9 |
| 20260509185941 | 79 | 50 | 0.0 | 0.9 | 0.00 | 0.05 | 0.05 | 78 | 1012.6 |
| 20260509185438 | 80 | 51 | 0.0 | 0.0 | 0.00 | 0.05 | 0.05 | 77 | 1012.9 |
| 20260509184934 | 81 | 51 | 0.0 | 1.7 | 0.00 | 0.05 | 0.05 | 75 | 1012.7 |
| 20260509184433 | 81 | 25 | 0.0 | 0.9 | 0.00 | 0.05 | 0.05 | 73 | 1012.8 |
| 20260509183929 | 82 | 48 | 0.0 | 0.9 | 0.00 | 0.05 | 0.05 | 73 | 1012.6 |
| 20260509183423 | 83 | 30 | 0.0 | 0.0 | 0.00 | 0.05 | 0.05 | 74 | 1013.0 |
| 20260509182920 | 83 | 31 | 0.0 | 0.0 | 0.00 | 0.05 | 0.05 | 73 | 1012.8 |
| 20260509182416 | 83 | 51 | 0.0 | 0.9 | 0.00 | 0.05 | 0.05 | 73 | 1013.0 |
| 20260509181914 | 83 | 56 | 0.0 | 0.9 | 0.00 | 0.05 | 0.05 | 73 | 1013.0 |
| 20260509181411 | 83 | 56 | 0.9 | 1.7 | 0.00 | 0.05 | 0.05 | 71 | 1013.0 |
| 20260509180908 | 83 | 38 | 0.0 | 0.0 | 0.00 | 0.05 | 0.05 | 70 | 1013.0 |
| 20260509180404 | 84 | 46 | 0.0 | 0.9 | 0.00 | 0.05 | 0.05 | 70 | 1013.1 |
| 20260509175901 | 84 | 32 | 0.9 | 1.7 | 0.00 | 0.05 | 0.05 | 69 | 1013.3 |
| 20260509175357 | 84 | 27 | 0.9 | 1.7 | 0.00 | 0.05 | 0.05 | 70 | 1013.5 |
| 20260509174854 | 84 | 27 | 0.0 | 0.9 | 0.00 | 0.05 | 0.05 | 72 | 1013.4 |
| 20260509174350 | 83 | 22 | 0.9 | 1.7 | 0.00 | 0.05 | 0.05 | 72 | 1013.5 |
| 20260509173846 | 83 | 50 | 0.0 | 0.9 | 0.00 | 0.05 | 0.05 | 72 | 1013.4 |
| 20260509173341 | 82 | 29 | 0.0 | 0.9 | 0.00 | 0.05 | 0.05 | 74 | 1013.4 |
| 20260509172837 | 82 | 54 | 0.9 | 0.9 | 0.00 | 0.05 | 0.05 | 74 | 1013.4 |
| 20260509172334 | 82 | 49 | 0.0 | 0.0 | 0.00 | 0.05 | 0.05 | 76 | 1013.3 |
| 20260509171830 | 81 | 68 | 0.0 | 1.7 | 0.00 | 0.05 | 0.05 | 74 | 1013.4 |
| 20260509171326 | 82 | 36 | 0.0 | 1.7 | 0.00 | 0.05 | 0.05 | 74 | 1013.2 |
| 20260509170822 | 82 | 31 | 0.0 | 0.9 | 0.00 | 0.05 | 0.05 | 74 | 1013.4 |
| 20260509170318 | 82 | 27 | 0.0 | 0.9 | 0.00 | 0.05 | 0.05 | 74 | 1013.5 |
| 20260509165818 | 81 | 41 | 0.0 | 0.9 | 0.00 | 0.05 | 0.05 | 74 | 1013.5 |
| 20260509165313 | 81 | 34 | 0.0 | 0.9 | 0.00 | 0.05 | 0.05 | 76 | 1013.6 |
| 20260509164809 | 81 | 61 | 0.9 | 0.9 | 0.00 | 0.05 | 0.05 | 77 | 1013.5 |
| 20260509164305 | 80 | 45 | 0.0 | 0.0 | 0.00 | 0.05 | 0.05 | 78 | 1013.4 |
| 20260509163802 | 79 | 48 | 0.0 | 0.9 | 0.00 | 0.05 | 0.05 | 77 | 1013.6 |
| 20260509163258 | 79 | 67 | 1.7 | 1.7 | 0.00 | 0.05 | 0.05 | 76 | 1013.5 |
| 20260509162758 | 80 | 43 | 0.0 | 0.9 | 0.00 | 0.05 | 0.05 | 76 | 1013.7 |
| 20260509162251 | 79 | 41 | 0.0 | 0.9 | 0.00 | 0.05 | 0.05 | 76 | 1013.9 |
| 20260509161747 | 79 | 21 | 0.0 | 0.0 | 0.00 | 0.05 | 0.05 | 76 | 1013.8 |
| 20260509161243 | 78 | 29 | 0.0 | 0.0 | 0.00 | 0.05 | 0.05 | 78 | 1014.0 |
| 20260509160738 | 78 | 31 | 0.0 | 0.0 | 0.00 | 0.05 | 0.05 | 80 | 1013.9 |
| 20260509160235 | 78 | 39 | 0.0 | 0.0 | 0.00 | 0.05 | 0.05 | 80 | 1014.1 |
| 20260509155730 | 77 | 25 | 0.0 | 0.9 | 0.00 | 0.05 | 0.05 | 80 | 1013.7 |
| 20260509155227 | 77 | 69 | 1.7 | 1.7 | 0.00 | 0.05 | 0.05 | 79 | 1013.8 |
| 20260509154723 | 77 | 41 | 0.0 | 0.9 | 0.00 | 0.05 | 0.05 | 81 | 1013.7 |
| 20260509154220 | 77 | 44 | 0.9 | 1.7 | 0.00 | 0.05 | 0.05 | 80 | 1013.8 |
| 20260509153718 | 77 | 77 | 0.9 | 1.7 | 0.00 | 0.05 | 0.05 | 80 | 1013.8 |